Time;durP1;ratioP1;P1;durP2;ratioP2;P2;SDS_P1;SDS_P2;PMS_P1;PMS_P2;Temp;Humidity;BMP_temperature;BMP_pressure;BME280_temperature;BME280_humidity;BME280_pressure;Samples;Min_cycle;Max_cycle;Signal;HPM_P1;HPM_P2
2022/09/29 00:00:54;;;;;;;;;;;24.90;99.90;;;;;;5030355;23;19929;-54
2022/09/29 00:03:21;;;;;;;;;;;24.90;99.90;;;;;;5012460;28;19956;-54
2022/09/29 00:05:47;;;;;;;;;;;24.90;99.90;;;;;;5014823;28;19905;-55
2022/09/29 00:08:12;;;;;;;;;;;24.90;99.90;;;;;;5016228;28;19917;-54
2022/09/29 00:10:41;;;;;;;;;;;24.80;99.90;;;;;;5014902;28;20003;-54
2022/09/29 00:13:06;;;;;;;;;;;24.70;99.90;;;;;;5011174;28;19910;-54
2022/09/29 00:15:32;;;;;;;;;;;24.70;99.90;;;;;;5012078;28;20388;-54
2022/09/29 00:17:57;;;;;;;;;;;24.70;99.90;;;;;;5015652;28;20031;-53
2022/09/29 00:20:23;;;;;;;;;;;24.60;99.90;;;;;;5025373;28;19905;-54
2022/09/29 00:22:49;;;;;;;;;;;24.60;99.90;;;;;;5011494;28;19959;-54
2022/09/29 00:25:15;;;;;;;;;;;24.60;99.90;;;;;;5012320;28;19921;-54
2022/09/29 00:27:40;;;;;;;;;;;24.50;99.90;;;;;;5012439;28;19905;-54
2022/09/29 00:30:06;;;;;;;;;;;24.50;99.90;;;;;;5011599;28;20276;-52
2022/09/29 00:32:32;;;;;;;;;;;24.50;99.90;;;;;;5011295;28;19925;-53
2022/09/29 00:34:57;;;;;;;;;;;24.50;99.90;;;;;;5012183;28;19917;-53
2022/09/29 00:37:23;;;;;;;;;;;24.40;99.90;;;;;;5016471;28;19905;-53
2022/09/29 00:39:49;;;;;;;;;;;24.50;99.90;;;;;;5011758;28;19909;-54
2022/09/29 00:42:18;;;;;;;;;;;24.50;99.90;;;;;;5012296;28;19959;-54
2022/09/29 00:45:10;;;;;;;;;;;24.50;99.90;;;;;;5012665;28;19962;-54
2022/09/29 00:47:36;;;;;;;;;;;24.50;99.90;;;;;;5009304;28;19910;-53
2022/09/29 00:50:11;;;;;;;;;;;24.50;99.90;;;;;;5010532;28;19910;-53
2022/09/29 00:52:40;;;;;;;;;;;24.50;99.90;;;;;;5013992;28;19909;-53
2022/09/29 00:55:08;;;;;;;;;;;24.50;99.90;;;;;;5008694;28;19909;-53
2022/09/29 00:57:40;;;;;;;;;;;24.50;99.90;;;;;;5011497;28;20384;-53
2022/09/29 01:00:08;;;;;;;;;;;24.50;99.90;;;;;;5041702;22;19929;-54
2022/09/29 01:02:35;;;;;;;;;;;24.50;99.90;;;;;;5026800;28;20012;-53
2022/09/29 01:05:01;;;;;;;;;;;24.50;99.90;;;;;;5031438;28;19916;-54
2022/09/29 01:07:27;;;;;;;;;;;24.50;99.90;;;;;;5031167;28;19989;-54
2022/09/29 01:09:55;;;;;;;;;;;24.50;99.90;;;;;;5028848;28;20003;-53
2022/09/29 01:12:21;;;;;;;;;;;24.60;99.90;;;;;;5029503;28;19951;-52
2022/09/29 01:14:47;;;;;;;;;;;24.60;99.90;;;;;;5030390;28;19937;-53
2022/09/29 01:17:13;;;;;;;;;;;24.60;99.90;;;;;;5027177;28;19929;-54
2022/09/29 01:19:45;;;;;;;;;;;24.60;99.90;;;;;;5037464;28;19906;-55
2022/09/29 01:22:10;;;;;;;;;;;24.60;99.90;;;;;;5025696;28;19916;-50
2022/09/29 01:24:36;;;;;;;;;;;24.50;99.90;;;;;;5030756;28;20455;-55
2022/09/29 01:27:20;;;;;;;;;;;24.60;99.90;;;;;;5030882;28;19905;-52
2022/09/29 01:30:06;;;;;;;;;;;24.50;99.90;;;;;;5046301;28;19905;-54
2022/09/29 01:32:32;;;;;;;;;;;24.50;99.90;;;;;;5030829;28;19917;-55
2022/09/29 01:35:08;;;;;;;;;;;24.50;99.90;;;;;;5029947;28;20000;-52
2022/09/29 01:37:33;;;;;;;;;;;24.50;99.90;;;;;;5030769;28;19909;-51
2022/09/29 01:40:12;;;;;;;;;;;24.50;99.90;;;;;;5030874;28;19931;-52
2022/09/29 01:42:41;;;;;;;;;;;24.60;99.90;;;;;;5030575;28;20023;-53
2022/09/29 01:45:13;;;;;;;;;;;24.50;99.90;;;;;;5030595;28;19904;-52
2022/09/29 01:47:41;;;;;;;;;;;24.60;99.90;;;;;;5030851;28;19987;-54
2022/09/29 01:50:19;;;;;;;;;;;24.60;99.90;;;;;;5030644;28;20304;-49
2022/09/29 01:52:47;;;;;;;;;;;24.60;99.90;;;;;;5030323;28;19905;-55
2022/09/29 01:55:15;;;;;;;;;;;24.50;99.90;;;;;;5029073;28;20345;-54
2022/09/29 01:57:48;;;;;;;;;;;24.50;99.90;;;;;;5031567;28;19913;-54
2022/09/29 02:00:15;;;;;;;;;;;24.50;99.90;;;;;;5028269;28;20308;-54
2022/09/29 02:02:53;;;;;;;;;;;24.60;99.90;;;;;;5020547;28;20380;-54
2022/09/29 02:05:32;;;;;;;;;;;24.60;99.90;;;;;;5022868;28;19913;-54
2022/09/29 02:08:06;;;;;;;;;;;24.60;99.90;;;;;;5028375;28;20387;-54
2022/09/29 02:10:33;;;;;;;;;;;24.60;99.90;;;;;;5029793;28;19905;-53
2022/09/29 02:13:00;;;;;;;;;;;24.60;99.90;;;;;;5030479;28;19912;-54
2022/09/29 02:15:28;;;;;;;;;;;24.60;99.90;;;;;;5030998;28;19905;-54
2022/09/29 02:17:57;;;;;;;;;;;24.60;99.90;;;;;;5031498;28;19908;-55
2022/09/29 02:20:23;;;;;;;;;;;24.70;99.90;;;;;;5031170;28;19905;-54
2022/09/29 02:22:49;;;;;;;;;;;24.60;99.90;;;;;;5031369;28;20003;-55
2022/09/29 02:25:16;;;;;;;;;;;24.70;99.90;;;;;;5031305;28;20008;-55
2022/09/29 02:27:42;;;;;;;;;;;24.60;99.90;;;;;;5031406;28;19959;-54
2022/09/29 02:30:08;;;;;;;;;;;24.70;99.90;;;;;;5031580;28;19912;-54
2022/09/29 02:32:34;;;;;;;;;;;24.70;99.90;;;;;;5031156;28;19905;-53
2022/09/29 02:35:01;;;;;;;;;;;24.70;99.90;;;;;;5031429;28;19905;-53
2022/09/29 02:37:30;;;;;;;;;;;24.60;99.90;;;;;;5031334;28;19912;-52
2022/09/29 02:40:14;;;;;;;;;;;24.60;99.90;;;;;;5031334;28;19912;-53
2022/09/29 02:42:40;;;;;;;;;;;24.60;99.90;;;;;;5031089;28;19913;-53
2022/09/29 02:45:14;;;;;;;;;;;24.60;99.90;;;;;;5031137;28;19915;-52
2022/09/29 02:47:50;;;;;;;;;;;24.60;99.90;;;;;;5034871;28;20328;-52
2022/09/29 02:50:28;;;;;;;;;;;24.60;99.90;;;;;;5035028;28;20338;-52
2022/09/29 02:53:15;;;;;;;;;;;24.60;99.90;;;;;;5035002;28;20356;-53
2022/09/29 02:56:02;;;;;;;;;;;24.60;99.90;;;;;;5034895;28;19992;-53
2022/09/29 02:58:35;;;;;;;;;;;24.60;99.90;;;;;;5035081;28;19905;-52
2022/09/29 03:01:01;;;;;;;;;;;24.60;99.90;;;;;;5035277;28;19920;-53
2022/09/29 03:03:27;;;;;;;;;;;24.50;99.90;;;;;;5035088;28;19909;-52
2022/09/29 03:05:52;;;;;;;;;;;24.50;99.90;;;;;;5034790;28;19911;-53
2022/09/29 03:08:18;;;;;;;;;;;24.50;99.90;;;;;;5034637;28;19959;-52
2022/09/29 03:10:44;;;;;;;;;;;24.60;99.90;;;;;;5034723;28;20347;-53
2022/09/29 03:13:09;;;;;;;;;;;24.50;99.90;;;;;;5034606;28;19951;-54
2022/09/29 03:15:35;;;;;;;;;;;24.50;99.90;;;;;;5018369;28;19997;-53
2022/09/29 03:18:01;;;;;;;;;;;24.50;99.90;;;;;;5018118;28;19925;-50
2022/09/29 03:20:27;;;;;;;;;;;24.50;99.90;;;;;;5014660;28;19976;-51
2022/09/29 03:22:56;;;;;;;;;;;24.50;99.90;;;;;;5019278;28;19941;-51
2022/09/29 03:25:23;;;;;;;;;;;24.50;99.90;;;;;;5033186;28;19905;-51
2022/09/29 03:27:49;;;;;;;;;;;24.40;99.90;;;;;;5034272;28;19905;-51
2022/09/29 03:30:15;;;;;;;;;;;24.40;99.90;;;;;;5034068;28;20383;-50
2022/09/29 03:32:41;;;;;;;;;;;24.40;99.90;;;;;;5032794;28;20312;-51
2022/09/29 03:35:07;;;;;;;;;;;24.30;99.90;;;;;;5034028;28;19912;-52
2022/09/29 03:37:33;;;;;;;;;;;24.30;99.90;;;;;;5024305;28;19905;-52
2022/09/29 03:39:59;;;;;;;;;;;24.30;99.90;;;;;;5028324;28;19940;-52
2022/09/29 03:42:27;;;;;;;;;;;24.20;99.90;;;;;;5029003;28;19923;-53
2022/09/29 03:44:53;;;;;;;;;;;24.20;99.90;;;;;;5033563;28;20406;-52
2022/09/29 03:47:18;;;;;;;;;;;24.20;99.90;;;;;;5026952;28;20347;-52
2022/09/29 03:49:44;;;;;;;;;;;24.20;99.90;;;;;;5033505;28;19986;-54
2022/09/29 03:52:10;;;;;;;;;;;24.10;99.90;;;;;;5033410;28;19948;-53
2022/09/29 03:54:35;;;;;;;;;;;24.10;99.90;;;;;;5033372;28;19959;-52
2022/09/29 03:57:01;;;;;;;;;;;24.10;99.90;;;;;;5032095;28;19917;-52
2022/09/29 03:59:26;;;;;;;;;;;24.00;99.90;;;;;;5031668;28;19915;-53
2022/09/29 04:01:52;;;;;;;;;;;23.90;99.90;;;;;;5032153;28;19987;-52
2022/09/29 04:04:17;;;;;;;;;;;23.90;99.90;;;;;;5031763;28;20192;-52
2022/09/29 04:06:43;;;;;;;;;;;23.80;99.90;;;;;;5028210;28;19959;-51
2022/09/29 04:09:09;;;;;;;;;;;23.80;99.90;;;;;;5032292;28;20268;-52
2022/09/29 04:11:35;;;;;;;;;;;23.80;99.90;;;;;;5032474;28;19905;-53
2022/09/29 04:14:01;;;;;;;;;;;23.70;99.90;;;;;;5019250;28;19905;-52
2022/09/29 04:16:27;;;;;;;;;;;23.70;99.90;;;;;;5033400;28;19901;-52
2022/09/29 04:18:52;;;;;;;;;;;23.70;99.90;;;;;;5032346;28;19909;-54
2022/09/29 04:21:18;;;;;;;;;;;23.70;99.90;;;;;;5032881;28;19913;-54
2022/09/29 04:23:44;;;;;;;;;;;23.60;99.90;;;;;;5033451;28;19906;-54
2022/09/29 04:26:10;;;;;;;;;;;23.70;99.90;;;;;;5033182;28;20271;-53
2022/09/29 04:28:35;;;;;;;;;;;23.70;99.90;;;;;;5033530;28;20348;-54
2022/09/29 04:31:01;;;;;;;;;;;23.70;99.90;;;;;;5033291;28;20405;-53
2022/09/29 04:33:28;;;;;;;;;;;23.70;99.90;;;;;;5033046;28;19905;-54
2022/09/29 04:35:54;;;;;;;;;;;23.70;99.90;;;;;;5032991;28;19912;-53
2022/09/29 04:38:20;;;;;;;;;;;23.70;99.90;;;;;;5033075;28;20075;-53
2022/09/29 04:40:46;;;;;;;;;;;23.70;99.90;;;;;;5031737;28;20311;-51
2022/09/29 04:43:11;;;;;;;;;;;23.60;99.90;;;;;;5032989;28;20268;-52
2022/09/29 04:45:37;;;;;;;;;;;23.60;99.90;;;;;;5032852;28;19916;-51
2022/09/29 04:48:03;;;;;;;;;;;23.60;99.90;;;;;;5032848;28;19928;-53
2022/09/29 04:50:28;;;;;;;;;;;23.60;99.90;;;;;;5032816;28;19975;-53
2022/09/29 04:52:54;;;;;;;;;;;23.50;99.90;;;;;;5032767;28;19905;-54
2022/09/29 04:55:19;;;;;;;;;;;23.50;99.90;;;;;;5032752;28;19905;-54
2022/09/29 04:57:46;;;;;;;;;;;23.50;99.90;;;;;;5031501;28;19912;-53
2022/09/29 05:00:11;;;;;;;;;;;23.40;99.90;;;;;;5032447;28;19939;-53
2022/09/29 05:02:37;;;;;;;;;;;23.40;99.90;;;;;;5032879;28;19913;-53
2022/09/29 05:05:04;;;;;;;;;;;23.40;99.90;;;;;;5032697;28;19920;-53
2022/09/29 05:07:30;;;;;;;;;;;23.30;99.90;;;;;;5032356;28;19999;-54
2022/09/29 05:09:56;;;;;;;;;;;23.30;99.90;;;;;;5032229;28;19941;-54
2022/09/29 05:12:21;;;;;;;;;;;23.20;99.90;;;;;;5032322;28;19916;-52
2022/09/29 05:14:47;;;;;;;;;;;23.20;99.90;;;;;;5032390;28;19915;-53
2022/09/29 05:17:13;;;;;;;;;;;23.10;99.90;;;;;;5032178;28;19905;-54
2022/09/29 05:19:38;;;;;;;;;;;23.10;99.90;;;;;;5032188;28;20039;-53
2022/09/29 05:22:05;;;;;;;;;;;23.10;99.90;;;;;;5032372;28;19920;-53
2022/09/29 05:24:30;;;;;;;;;;;23.00;99.90;;;;;;5032061;28;19905;-53
2022/09/29 05:26:56;;;;;;;;;;;23.00;99.90;;;;;;5032147;28;19905;-54
2022/09/29 05:29:22;;;;;;;;;;;23.00;99.90;;;;;;5027533;28;20016;-52
2022/09/29 05:31:48;;;;;;;;;;;22.90;99.90;;;;;;5031074;28;19917;-52
2022/09/29 05:34:13;;;;;;;;;;;22.90;99.90;;;;;;5030781;28;19959;-53
2022/09/29 05:36:39;;;;;;;;;;;22.90;99.90;;;;;;5031778;28;20343;-54
2022/09/29 05:39:05;;;;;;;;;;;22.90;99.90;;;;;;5032101;28;19959;-52
2022/09/29 05:41:30;;;;;;;;;;;22.80;99.90;;;;;;5031789;28;19917;-53
2022/09/29 05:43:56;;;;;;;;;;;22.80;99.90;;;;;;5031786;28;19931;-52
2022/09/29 05:46:22;;;;;;;;;;;22.70;99.90;;;;;;5031835;28;19927;-52
2022/09/29 05:48:48;;;;;;;;;;;22.70;99.90;;;;;;5031678;28;19909;-53
2022/09/29 05:51:15;;;;;;;;;;;22.60;99.90;;;;;;5031524;28;19905;-53
2022/09/29 05:53:41;;;;;;;;;;;22.60;99.90;;;;;;5031731;28;19905;-52
2022/09/29 05:56:27;;;;;;;;;;;22.50;99.90;;;;;;5031859;28;20276;-54
2022/09/29 05:58:53;;;;;;;;;;;22.60;99.90;;;;;;5031267;28;19905;-54
2022/09/29 06:01:23;;;;;;;;;;;22.50;99.90;;;;;;5031135;28;19917;-52
2022/09/29 06:03:50;;;;;;;;;;;22.50;99.90;;;;;;5031663;28;19959;-53
2022/09/29 06:06:17;;;;;;;;;;;22.50;99.90;;;;;;5031549;28;19905;-52
2022/09/29 06:08:43;;;;;;;;;;;22.50;99.90;;;;;;5031250;28;19994;-51
2022/09/29 06:11:11;;;;;;;;;;;22.50;99.90;;;;;;5027117;28;19912;-53
2022/09/29 06:13:37;;;;;;;;;;;22.40;99.90;;;;;;5026081;28;19905;-53
2022/09/29 06:16:03;;;;;;;;;;;22.40;99.90;;;;;;5026847;28;19905;-53
2022/09/29 06:18:29;;;;;;;;;;;22.40;99.90;;;;;;5022184;28;19912;-52
2022/09/29 06:20:59;;;;;;;;;;;22.40;99.90;;;;;;5031811;28;19913;-53
2022/09/29 06:23:24;;;;;;;;;;;22.40;99.90;;;;;;5035307;28;19987;-53
2022/09/29 06:25:54;;;;;;;;;;;22.40;99.90;;;;;;5035391;28;20340;-53
2022/09/29 06:28:19;;;;;;;;;;;22.40;99.90;;;;;;5035262;28;19955;-54
2022/09/29 06:30:45;;;;;;;;;;;22.40;99.90;;;;;;5035118;28;19905;-53
2022/09/29 06:33:10;;;;;;;;;;;22.40;99.90;;;;;;5035284;28;19991;-54
2022/09/29 06:38:20;;;;;;;;;;;22.40;99.90;;;;;;5035372;28;19959;-54
2022/09/29 06:40:46;;;;;;;;;;;22.40;99.90;;;;;;5034940;28;19909;-53
2022/09/29 06:43:11;;;;;;;;;;;22.40;99.90;;;;;;5034940;28;19913;-53
2022/09/29 06:45:37;;;;;;;;;;;22.40;99.90;;;;;;5035046;28;19945;-53
2022/09/29 06:48:03;;;;;;;;;;;22.50;99.90;;;;;;5034748;28;19912;-53
2022/09/29 06:50:28;;;;;;;;;;;22.50;99.90;;;;;;5034760;28;19904;-53
2022/09/29 06:52:54;;;;;;;;;;;22.50;99.90;;;;;;5034469;28;19905;-55
2022/09/29 06:55:19;;;;;;;;;;;22.60;99.90;;;;;;5034440;28;19955;-53
2022/09/29 06:57:45;;;;;;;;;;;22.70;99.90;;;;;;5034573;28;19905;-53
2022/09/29 07:00:11;;;;;;;;;;;22.70;99.90;;;;;;5034552;28;19971;-53
2022/09/29 07:02:36;;;;;;;;;;;22.70;99.90;;;;;;5034538;28;19913;-53
2022/09/29 07:05:02;;;;;;;;;;;22.80;99.90;;;;;;5034808;28;19912;-53
2022/09/29 07:07:28;;;;;;;;;;;22.90;99.90;;;;;;5034656;28;20359;-53
2022/09/29 07:09:53;;;;;;;;;;;22.90;99.90;;;;;;5034711;28;19996;-53
2022/09/29 07:12:19;;;;;;;;;;;22.90;99.90;;;;;;5034204;28;19944;-54
2022/09/29 07:14:44;;;;;;;;;;;23.00;99.90;;;;;;5034375;28;19905;-53
2022/09/29 07:17:12;;;;;;;;;;;23.00;99.90;;;;;;5034551;28;19905;-52
2022/09/29 07:19:37;;;;;;;;;;;23.00;99.90;;;;;;5034334;28;20267;-53
2022/09/29 07:22:04;;;;;;;;;;;23.10;99.90;;;;;;5034150;28;20430;-52
2022/09/29 07:24:30;;;;;;;;;;;23.10;99.90;;;;;;5034406;28;19909;-53
2022/09/29 07:26:55;;;;;;;;;;;23.10;99.90;;;;;;5034587;28;20339;-53
2022/09/29 07:29:21;;;;;;;;;;;23.20;99.90;;;;;;5034304;28;19959;-52
2022/09/29 07:31:50;;;;;;;;;;;23.20;99.90;;;;;;5033918;28;19913;-53
2022/09/29 07:34:16;;;;;;;;;;;23.30;99.90;;;;;;5033988;28;19936;-53
2022/09/29 07:36:41;;;;;;;;;;;23.40;99.90;;;;;;5033889;28;19913;-53
2022/09/29 07:39:07;;;;;;;;;;;23.50;99.90;;;;;;5033962;28;19905;-53
2022/09/29 07:41:32;;;;;;;;;;;23.50;99.90;;;;;;5033846;28;19913;-53
2022/09/29 07:43:58;;;;;;;;;;;23.60;99.90;;;;;;5033902;28;19912;-53
2022/09/29 07:46:24;;;;;;;;;;;23.70;99.90;;;;;;5033877;28;19912;-55
2022/09/29 07:48:49;;;;;;;;;;;23.70;99.90;;;;;;5033612;28;20287;-55
2022/09/29 07:51:16;;;;;;;;;;;23.70;99.90;;;;;;5033606;28;19905;-53
2022/09/29 07:53:42;;;;;;;;;;;23.80;99.90;;;;;;5033642;28;19920;-53
2022/09/29 07:56:09;;;;;;;;;;;23.90;99.90;;;;;;5033445;28;20082;-54
2022/09/29 07:58:35;;;;;;;;;;;23.90;99.90;;;;;;5033326;28;20380;-53
2022/09/29 08:01:04;;;;;;;;;;;24.00;99.90;;;;;;5033485;28;19917;-54
2022/09/29 08:03:29;;;;;;;;;;;24.00;99.90;;;;;;5033347;28;20374;-53
2022/09/29 08:05:56;;;;;;;;;;;24.00;99.90;;;;;;5033388;28;19999;-53
2022/09/29 08:08:22;;;;;;;;;;;24.00;99.90;;;;;;5033517;28;19905;-53
2022/09/29 08:10:48;;;;;;;;;;;24.10;99.90;;;;;;5033395;28;20427;-54
2022/09/29 08:13:13;;;;;;;;;;;24.10;99.90;;;;;;5033650;28;20001;-53
2022/09/29 08:15:39;;;;;;;;;;;24.10;99.90;;;;;;5033317;28;19996;-53
2022/09/29 08:18:04;;;;;;;;;;;24.10;99.90;;;;;;5033304;28;19948;-53
2022/09/29 08:20:30;;;;;;;;;;;24.20;99.90;;;;;;5033241;28;20322;-53
2022/09/29 08:22:57;;;;;;;;;;;24.20;99.90;;;;;;5032988;28;19920;-54
2022/09/29 08:25:25;;;;;;;;;;;24.10;99.90;;;;;;5033365;28;19905;-53
2022/09/29 08:27:52;;;;;;;;;;;24.10;99.90;;;;;;5033107;28;19905;-53
2022/09/29 08:30:17;;;;;;;;;;;24.10;99.90;;;;;;5033304;28;19909;-54
2022/09/29 08:32:44;;;;;;;;;;;24.10;99.90;;;;;;5031792;28;19909;-53
2022/09/29 08:35:09;;;;;;;;;;;24.10;99.90;;;;;;5031681;28;19905;-54
2022/09/29 08:37:35;;;;;;;;;;;24.10;99.90;;;;;;5032743;28;19905;-53
2022/09/29 08:40:01;;;;;;;;;;;24.00;99.90;;;;;;5032737;28;20341;-53
2022/09/29 08:42:35;;;;;;;;;;;23.90;99.90;;;;;;5032760;28;20427;-54
2022/09/29 08:45:03;;;;;;;;;;;23.90;99.90;;;;;;5032147;28;19999;-54
2022/09/29 08:47:30;;;;;;;;;;;23.90;99.90;;;;;;5032879;28;19904;-54
2022/09/29 08:49:58;;;;;;;;;;;24.00;99.90;;;;;;5032496;28;20361;-55
2022/09/29 08:52:24;;;;;;;;;;;24.10;99.90;;;;;;5032565;28;19905;-54
2022/09/29 08:54:53;;;;;;;;;;;24.10;99.90;;;;;;5032508;28;20410;-54
2022/09/29 08:57:19;;;;;;;;;;;24.10;99.90;;;;;;5032550;28;19927;-54
2022/09/29 08:59:56;;;;;;;;;;;24.20;99.90;;;;;;5032356;28;20379;-53
2022/09/29 09:02:36;;;;;;;;;;;24.30;99.90;;;;;;5047417;28;19917;-53
2022/09/29 09:05:17;;;;;;;;;;;24.30;99.90;;;;;;5032022;28;19905;-53
2022/09/29 09:07:42;;;;;;;;;;;24.40;99.90;;;;;;5032208;28;19905;-54
2022/09/29 09:10:32;;;;;;;;;;;24.50;99.90;;;;;;5032349;28;19905;-53
2022/09/29 09:12:58;;;;;;;;;;;24.60;99.90;;;;;;5032011;28;19904;-54
2022/09/29 09:15:23;;;;;;;;;;;24.60;99.90;;;;;;5031938;28;20015;-53
2022/09/29 09:17:58;;;;;;;;;;;24.70;99.90;;;;;;5032226;28;19909;-54
2022/09/29 09:20:34;;;;;;;;;;;24.80;99.90;;;;;;5031979;28;19905;-53
2022/09/29 09:23:01;;;;;;;;;;;24.80;99.90;;;;;;5031677;28;19960;-53
2022/09/29 09:25:27;;;;;;;;;;;24.90;99.90;;;;;;5032496;28;19995;-53
2022/09/29 09:27:58;;;;;;;;;;;25.00;99.90;;;;;;5027270;28;19945;-53
2022/09/29 09:30:25;;;;;;;;;;;25.10;99.90;;;;;;5031923;28;19905;-53
2022/09/29 09:32:54;;;;;;;;;;;25.20;99.90;;;;;;5031732;28;20340;-53
2022/09/29 09:35:24;;;;;;;;;;;25.30;99.90;;;;;;5031891;28;19909;-54
2022/09/29 09:37:52;;;;;;;;;;;25.30;99.90;;;;;;5032088;28;19995;-53
2022/09/29 09:40:30;;;;;;;;;;;25.40;99.90;;;;;;5031825;28;19905;-54
2022/09/29 09:43:01;;;;;;;;;;;25.40;99.90;;;;;;5031577;28;19960;-54
2022/09/29 09:45:36;;;;;;;;;;;25.50;99.90;;;;;;5027091;28;19991;-53
2022/09/29 09:48:14;;;;;;;;;;;25.50;99.90;;;;;;5015970;28;19905;-55
2022/09/29 09:50:41;;;;;;;;;;;25.70;99.90;;;;;;5031387;28;19912;-56
2022/09/29 09:53:18;;;;;;;;;;;25.70;99.90;;;;;;5031236;28;19909;-54
2022/09/29 09:55:47;;;;;;;;;;;25.70;99.90;;;;;;5030788;28;19928;-54
2022/09/29 09:58:31;;;;;;;;;;;25.80;99.90;;;;;;5031356;28;19909;-54
2022/09/29 10:00:59;;;;;;;;;;;25.80;99.90;;;;;;5031282;28;20327;-54
2022/09/29 10:03:26;;;;;;;;;;;25.90;99.90;;;;;;5031418;28;19921;-54
2022/09/29 10:05:51;;;;;;;;;;;25.90;99.90;;;;;;5031689;28;19912;-54
2022/09/29 10:08:37;;;;;;;;;;;26.00;99.90;;;;;;5031153;28;19913;-54
2022/09/29 10:11:03;;;;;;;;;;;26.00;99.90;;;;;;5031448;28;20020;-54
2022/09/29 10:13:30;;;;;;;;;;;26.10;99.90;;;;;;5031222;28;20352;-54
2022/09/29 10:16:07;;;;;;;;;;;26.20;99.90;;;;;;5031274;28;19951;-54
2022/09/29 10:18:33;;;;;;;;;;;26.20;99.90;;;;;;5031297;28;20308;-55
2022/09/29 10:20:58;;;;;;;;;;;26.30;99.90;;;;;;5031020;28;19909;-54
2022/09/29 10:23:26;;;;;;;;;;;26.40;99.90;;;;;;5031077;28;19959;-54
2022/09/29 10:25:53;;;;;;;;;;;26.40;99.90;;;;;;5031405;28;19912;-55
2022/09/29 10:28:18;;;;;;;;;;;26.50;99.90;;;;;;5030927;28;20347;-54
2022/09/29 10:30:44;;;;;;;;;;;26.50;99.90;;;;;;5031153;28;19996;-55
2022/09/29 10:33:15;;;;;;;;;;;26.60;99.90;;;;;;5031113;28;20357;-54
2022/09/29 10:35:41;;;;;;;;;;;26.60;99.90;;;;;;5031115;28;20000;-54
2022/09/29 10:38:06;;;;;;;;;;;26.70;99.90;;;;;;5031022;28;20360;-54
2022/09/29 10:40:33;;;;;;;;;;;26.70;99.90;;;;;;5031024;28;19905;-55
2022/09/29 10:43:15;;;;;;;;;;;26.60;99.90;;;;;;5031042;28;19917;-56
2022/09/29 10:45:46;;;;;;;;;;;26.60;99.90;;;;;;5030826;28;20280;-54
2022/09/29 10:48:13;;;;;;;;;;;26.60;99.90;;;;;;5028746;28;19908;-54
2022/09/29 10:50:49;;;;;;;;;;;26.70;99.90;;;;;;5011184;28;19906;-54
2022/09/29 10:53:34;;;;;;;;;;;26.70;99.90;;;;;;5010615;28;19980;-54
2022/09/29 10:56:04;;;;;;;;;;;26.70;99.90;;;;;;5019200;28;20408;-55
2022/09/29 10:58:33;;;;;;;;;;;26.70;99.90;;;;;;5030669;28;19909;-55
2022/09/29 11:01:06;;;;;;;;;;;26.70;99.90;;;;;;5030581;28;19921;-54
2022/09/29 11:03:32;;;;;;;;;;;26.60;99.90;;;;;;5030559;28;20364;-53
2022/09/29 11:06:00;;;;;;;;;;;26.60;99.90;;;;;;5029564;28;19909;-53
2022/09/29 11:08:26;;;;;;;;;;;26.60;99.90;;;;;;5033694;28;20005;-54
2022/09/29 11:11:06;;;;;;;;;;;26.60;99.90;;;;;;5026416;28;19917;-55
2022/09/29 11:13:33;;;;;;;;;;;26.60;99.90;;;;;;5014255;28;20288;-54
2022/09/29 11:16:03;;;;;;;;;;;26.60;99.90;;;;;;5014023;28;19905;-53
2022/09/29 11:18:34;;;;;;;;;;;26.60;99.90;;;;;;5013927;28;19905;-51
2022/09/29 11:21:23;;;;;;;;;;;26.60;99.90;;;;;;5017038;28;20451;-53
2022/09/29 11:23:53;;;;;;;;;;;26.70;99.90;;;;;;5025860;28;19920;-54
2022/09/29 11:26:19;;;;;;;;;;;26.80;99.90;;;;;;5025414;28;19909;-55
2022/09/29 11:28:44;;;;;;;;;;;26.90;99.90;;;;;;5033965;28;19951;-56
2022/09/29 11:31:29;;;;;;;;;;;27.00;99.90;;;;;;5034110;28;19911;-55
2022/09/29 11:34:03;;;;;;;;;;;27.00;99.90;;;;;;5034207;28;19905;-58
2022/09/29 11:36:37;;;;;;;;;;;27.00;99.90;;;;;;5034033;28;19905;-58
2022/09/29 11:39:12;;;;;;;;;;;27.00;99.90;;;;;;5031841;28;20374;-57
2022/09/29 11:41:47;;;;;;;;;;;27.00;99.90;;;;;;5014900;28;19957;-57
2022/09/29 11:44:16;;;;;;;;;;;26.90;99.90;;;;;;5023840;28;19913;-57
2022/09/29 11:46:48;;;;;;;;;;;26.90;99.90;;;;;;5027303;28;20003;-58
2022/09/29 11:49:20;;;;;;;;;;;26.90;99.90;;;;;;5029791;28;20400;-55
2022/09/29 11:52:04;;;;;;;;;;;26.90;99.90;;;;;;5028873;28;20253;-61
2022/09/29 11:54:30;;;;;;;;;;;26.90;99.90;;;;;;5033378;28;19913;-54
2022/09/29 11:56:55;;;;;;;;;;;26.90;99.90;;;;;;5024012;28;19909;-58
2022/09/29 11:59:36;;;;;;;;;;;26.90;99.90;;;;;;5033516;28;19905;-56
2022/09/29 12:02:10;;;;;;;;;;;26.90;99.90;;;;;;5033317;28;19919;-56
2022/09/29 12:04:55;;;;;;;;;;;26.80;99.90;;;;;;5028661;28;19948;-56
2022/09/29 12:07:45;;;;;;;;;;;26.80;99.90;;;;;;5025565;28;20364;-60
2022/09/29 12:10:23;;;;;;;;;;;26.80;99.90;;;;;;5019620;28;19913;-56
2022/09/29 12:12:57;;;;;;;;;;;26.80;99.90;;;;;;5032358;28;20323;-53
2022/09/29 12:15:23;;;;;;;;;;;26.90;99.90;;;;;;5032205;28;19909;-54
2022/09/29 12:17:54;;;;;;;;;;;27.00;99.90;;;;;;5032972;28;20008;-54
2022/09/29 12:20:23;;;;;;;;;;;26.90;99.90;;;;;;5025297;28;19935;-55
2022/09/29 12:22:50;;;;;;;;;;;26.90;99.90;;;;;;5015140;28;19913;-55
2022/09/29 12:25:17;;;;;;;;;;;26.90;99.90;;;;;;5031906;28;19912;-60
2022/09/29 12:27:44;;;;;;;;;;;26.90;99.90;;;;;;5032129;28;19956;-55
2022/09/29 12:30:21;;;;;;;;;;;26.90;99.90;;;;;;5032820;28;19905;-53
2022/09/29 12:32:53;;;;;;;;;;;26.80;99.90;;;;;;5033016;28;19938;-53
2022/09/29 12:35:18;;;;;;;;;;;26.80;99.90;;;;;;5032854;28;19902;-53
2022/09/29 12:37:53;;;;;;;;;;;26.80;99.90;;;;;;5032834;28;20284;-53
2022/09/29 12:40:21;;;;;;;;;;;26.70;99.90;;;;;;5031277;28;19905;-54
2022/09/29 12:42:50;;;;;;;;;;;26.70;99.90;;;;;;5024933;28;19927;-54
2022/09/29 12:45:29;;;;;;;;;;;26.60;99.90;;;;;;5032166;28;20004;-54
2022/09/29 12:48:13;;;;;;;;;;;26.60;99.90;;;;;;5032400;28;19952;-54
2022/09/29 12:50:45;;;;;;;;;;;26.60;99.90;;;;;;5032086;28;19904;-54
2022/09/29 12:53:25;;;;;;;;;;;26.60;99.90;;;;;;5027242;28;20284;-53
2022/09/29 12:55:57;;;;;;;;;;;26.60;99.90;;;;;;5029762;28;19909;-53
2022/09/29 12:58:29;;;;;;;;;;;26.60;99.90;;;;;;5031725;28;20324;-52
2022/09/29 13:01:01;;;;;;;;;;;26.60;99.90;;;;;;5029177;28;20288;-53
2022/09/29 13:03:30;;;;;;;;;;;26.60;99.90;;;;;;5027149;28;19964;-52
2022/09/29 13:06:19;;;;;;;;;;;26.60;99.90;;;;;;5031209;28;19912;-54
2022/09/29 13:08:51;;;;;;;;;;;26.50;99.90;;;;;;5032041;28;20304;-55
2022/09/29 13:11:19;;;;;;;;;;;26.50;99.90;;;;;;5030095;28;19919;-54
2022/09/29 13:13:48;;;;;;;;;;;26.50;99.90;;;;;;5028457;28;19913;-55
2022/09/29 13:16:27;;;;;;;;;;;26.50;99.90;;;;;;5031274;28;19949;-55
2022/09/29 13:18:58;;;;;;;;;;;26.50;99.90;;;;;;5027202;28;20280;-55
2022/09/29 13:21:33;;;;;;;;;;;26.50;99.90;;;;;;5044113;28;19952;-55
2022/09/29 13:24:04;;;;;;;;;;;26.60;99.90;;;;;;5031266;28;19909;-52
2022/09/29 13:26:48;;;;;;;;;;;26.70;99.90;;;;;;5026045;28;19921;-53
2022/09/29 13:29:25;;;;;;;;;;;26.80;99.90;;;;;;5028638;28;19916;-54
2022/09/29 13:31:53;;;;;;;;;;;26.90;99.90;;;;;;5031264;28;19949;-54
2022/09/29 13:34:32;;;;;;;;;;;26.90;99.90;;;;;;5030114;28;19958;-55
2022/09/29 13:37:12;;;;;;;;;;;27.00;99.90;;;;;;5031647;28;19988;-53
2022/09/29 13:39:38;;;;;;;;;;;27.00;99.90;;;;;;5031636;28;19913;-53
2022/09/29 13:42:25;;;;;;;;;;;27.10;99.90;;;;;;5031383;28;19913;-54
2022/09/29 13:45:23;;;;;;;;;;;27.10;99.90;;;;;;5031523;28;19940;-54
2022/09/29 13:47:50;;;;;;;;;;;27.20;99.90;;;;;;5015412;28;20348;-54
2022/09/29 13:50:34;;;;;;;;;;;27.20;99.90;;;;;;5031752;28;20405;-54
2022/09/29 13:53:26;;;;;;;;;;;27.30;99.90;;;;;;5031300;28;19905;-54
2022/09/29 13:55:53;;;;;;;;;;;27.30;99.90;;;;;;5022284;28;19909;-55
2022/09/29 13:58:29;;;;;;;;;;;27.40;99.90;;;;;;5030921;28;19916;-52
2022/09/29 14:00:57;;;;;;;;;;;27.40;99.90;;;;;;5031518;28;19925;-54
2022/09/29 14:03:24;;;;;;;;;;;27.50;99.90;;;;;;5031593;28;19920;-54
2022/09/29 14:05:55;;;;;;;;;;;27.50;99.90;;;;;;5030768;28;19991;-53
2022/09/29 14:08:26;;;;;;;;;;;27.50;99.90;;;;;;5031780;28;19913;-53
2022/09/29 14:11:03;;;;;;;;;;;27.50;99.90;;;;;;5031657;28;20312;-54
2022/09/29 14:13:29;;;;;;;;;;;27.50;99.90;;;;;;5031188;28;19909;-51
2022/09/29 14:16:13;;;;;;;;;;;27.50;99.90;;;;;;5031457;28;20700;-51
2022/09/29 14:18:47;;;;;;;;;;;27.50;99.90;;;;;;5031427;28;19905;-51
2022/09/29 14:21:32;;;;;;;;;;;27.50;99.90;;;;;;5031543;28;19905;-51
2022/09/29 14:23:58;;;;;;;;;;;27.50;99.90;;;;;;5031281;28;19913;-51
2022/09/29 14:26:42;;;;;;;;;;;27.50;99.90;;;;;;5031400;28;19948;-52
2022/09/29 14:29:19;;;;;;;;;;;27.40;99.90;;;;;;5031536;28;19908;-52
2022/09/29 14:31:48;;;;;;;;;;;27.40;99.90;;;;;;5031357;28;19909;-52